sensor_id;sensor_type;location;lat;lon;timestamp;P1;durP1;ratioP1;P2;durP2;ratioP2
10761;SDS011;5433;50.862;4.320;2023-12-14T00:01:36;43.95;;;21.83;;
10761;SDS011;5433;50.862;4.320;2023-12-14T00:04:04;40.67;;;20.35;;
10761;SDS011;5433;50.862;4.320;2023-12-14T00:06:30;44.83;;;20.88;;
10761;SDS011;5433;50.862;4.320;2023-12-14T00:08:56;42.42;;;20.17;;
10761;SDS011;5433;50.862;4.320;2023-12-14T00:11:22;44.13;;;21.15;;
10761;SDS011;5433;50.862;4.320;2023-12-14T00:13:48;40.58;;;21.80;;
10761;SDS011;5433;50.862;4.320;2023-12-14T00:16:14;41.63;;;19.67;;
10761;SDS011;5433;50.862;4.320;2023-12-14T00:18:40;38.40;;;19.48;;
10761;SDS011;5433;50.862;4.320;2023-12-14T00:21:09;41.10;;;19.83;;
10761;SDS011;5433;50.862;4.320;2023-12-14T00:23:35;39.40;;;20.25;;
10761;SDS011;5433;50.862;4.320;2023-12-14T00:26:01;36.72;;;19.15;;
10761;SDS011;5433;50.862;4.320;2023-12-14T00:28:28;40.13;;;19.67;;
10761;SDS011;5433;50.862;4.320;2023-12-14T00:30:54;44.40;;;21.23;;
10761;SDS011;5433;50.862;4.320;2023-12-14T00:33:20;39.58;;;19.45;;
10761;SDS011;5433;50.862;4.320;2023-12-14T00:35:46;36.90;;;19.17;;
10761;SDS011;5433;50.862;4.320;2023-12-14T00:38:12;41.97;;;21.58;;
10761;SDS011;5433;50.862;4.320;2023-12-14T00:40:38;42.03;;;21.52;;
10761;SDS011;5433;50.862;4.320;2023-12-14T00:43:04;45.22;;;22.42;;
10761;SDS011;5433;50.862;4.320;2023-12-14T00:45:33;44.10;;;21.65;;
10761;SDS011;5433;50.862;4.320;2023-12-14T00:47:59;41.40;;;21.80;;
10761;SDS011;5433;50.862;4.320;2023-12-14T00:50:25;48.85;;;23.13;;
10761;SDS011;5433;50.862;4.320;2023-12-14T00:52:54;48.92;;;22.30;;
10761;SDS011;5433;50.862;4.320;2023-12-14T00:55:20;49.35;;;22.73;;
10761;SDS011;5433;50.862;4.320;2023-12-14T00:57:46;46.25;;;23.27;;
10761;SDS011;5433;50.862;4.320;2023-12-14T01:00:12;46.97;;;23.92;;
10761;SDS011;5433;50.862;4.320;2023-12-14T01:02:38;48.95;;;23.33;;
10761;SDS011;5433;50.862;4.320;2023-12-14T01:05:04;44.75;;;22.50;;
10761;SDS011;5433;50.862;4.320;2023-12-14T01:07:31;48.72;;;23.25;;
10761;SDS011;5433;50.862;4.320;2023-12-14T01:09:57;48.53;;;23.13;;
10761;SDS011;5433;50.862;4.320;2023-12-14T01:12:22;52.58;;;24.33;;
10761;SDS011;5433;50.862;4.320;2023-12-14T01:14:49;46.95;;;23.50;;
10761;SDS011;5433;50.862;4.320;2023-12-14T01:17:15;54.17;;;24.63;;
10761;SDS011;5433;50.862;4.320;2023-12-14T01:19:41;52.25;;;24.73;;
10761;SDS011;5433;50.862;4.320;2023-12-14T01:22:07;53.38;;;24.20;;
10761;SDS011;5433;50.862;4.320;2023-12-14T01:24:33;49.72;;;24.40;;
10761;SDS011;5433;50.862;4.320;2023-12-14T01:26:59;51.55;;;24.75;;
10761;SDS011;5433;50.862;4.320;2023-12-14T01:29:25;50.25;;;24.80;;
10761;SDS011;5433;50.862;4.320;2023-12-14T01:31:51;52.53;;;25.40;;
10761;SDS011;5433;50.862;4.320;2023-12-14T01:34:17;50.38;;;23.65;;
10761;SDS011;5433;50.862;4.320;2023-12-14T01:36:43;51.45;;;24.95;;
10761;SDS011;5433;50.862;4.320;2023-12-14T01:39:09;51.30;;;24.38;;
10761;SDS011;5433;50.862;4.320;2023-12-14T01:41:35;51.25;;;23.83;;
10761;SDS011;5433;50.862;4.320;2023-12-14T01:44:01;46.00;;;22.80;;
10761;SDS011;5433;50.862;4.320;2023-12-14T01:46:27;47.22;;;22.80;;
10761;SDS011;5433;50.862;4.320;2023-12-14T01:48:53;46.67;;;22.50;;
10761;SDS011;5433;50.862;4.320;2023-12-14T01:51:19;43.92;;;22.08;;
10761;SDS011;5433;50.862;4.320;2023-12-14T01:53:45;44.67;;;21.25;;
10761;SDS011;5433;50.862;4.320;2023-12-14T01:56:11;48.40;;;22.88;;
10761;SDS011;5433;50.862;4.320;2023-12-14T01:58:37;46.33;;;23.08;;
10761;SDS011;5433;50.862;4.320;2023-12-14T02:01:04;42.15;;;22.48;;
10761;SDS011;5433;50.862;4.320;2023-12-14T02:03:33;47.10;;;22.02;;
10761;SDS011;5433;50.862;4.320;2023-12-14T02:05:59;47.47;;;23.20;;
10761;SDS011;5433;50.862;4.320;2023-12-14T02:08:25;46.05;;;22.63;;
10761;SDS011;5433;50.862;4.320;2023-12-14T02:10:53;46.78;;;23.13;;
10761;SDS011;5433;50.862;4.320;2023-12-14T02:13:19;51.35;;;23.80;;
10761;SDS011;5433;50.862;4.320;2023-12-14T02:15:45;45.28;;;22.42;;
10761;SDS011;5433;50.862;4.320;2023-12-14T02:18:12;48.85;;;24.08;;
10761;SDS011;5433;50.862;4.320;2023-12-14T02:20:38;46.33;;;23.60;;
10761;SDS011;5433;50.862;4.320;2023-12-14T02:23:04;49.10;;;23.58;;
10761;SDS011;5433;50.862;4.320;2023-12-14T02:25:30;46.15;;;23.05;;
10761;SDS011;5433;50.862;4.320;2023-12-14T02:27:56;49.25;;;24.58;;
10761;SDS011;5433;50.862;4.320;2023-12-14T02:30:22;50.35;;;26.10;;
10761;SDS011;5433;50.862;4.320;2023-12-14T02:35:51;52.60;;;26.77;;
10761;SDS011;5433;50.862;4.320;2023-12-14T02:38:17;53.03;;;27.40;;
10761;SDS011;5433;50.862;4.320;2023-12-14T02:40:43;48.35;;;26.38;;
10761;SDS011;5433;50.862;4.320;2023-12-14T02:43:09;50.97;;;25.75;;
10761;SDS011;5433;50.862;4.320;2023-12-14T02:45:35;51.08;;;27.25;;
10761;SDS011;5433;50.862;4.320;2023-12-14T02:48:01;49.25;;;25.35;;
10761;SDS011;5433;50.862;4.320;2023-12-14T02:50:30;52.30;;;26.40;;
10761;SDS011;5433;50.862;4.320;2023-12-14T02:52:56;46.92;;;25.27;;
10761;SDS011;5433;50.862;4.320;2023-12-14T02:55:22;48.60;;;25.25;;
10761;SDS011;5433;50.862;4.320;2023-12-14T02:57:48;46.63;;;25.65;;
10761;SDS011;5433;50.862;4.320;2023-12-14T03:00:14;49.08;;;25.30;;
10761;SDS011;5433;50.862;4.320;2023-12-14T03:02:40;44.85;;;24.13;;
10761;SDS011;5433;50.862;4.320;2023-12-14T03:05:06;46.55;;;25.30;;
10761;SDS011;5433;50.862;4.320;2023-12-14T03:07:32;44.85;;;24.08;;
10761;SDS011;5433;50.862;4.320;2023-12-14T03:09:58;46.30;;;23.35;;
10761;SDS011;5433;50.862;4.320;2023-12-14T03:12:24;40.95;;;21.20;;
10761;SDS011;5433;50.862;4.320;2023-12-14T03:14:50;46.35;;;23.52;;
10761;SDS011;5433;50.862;4.320;2023-12-14T03:17:16;46.72;;;22.88;;
10761;SDS011;5433;50.862;4.320;2023-12-14T03:19:42;42.95;;;22.50;;
10761;SDS011;5433;50.862;4.320;2023-12-14T03:22:08;36.55;;;19.40;;
10761;SDS011;5433;50.862;4.320;2023-12-14T03:24:35;35.10;;;19.27;;
10761;SDS011;5433;50.862;4.320;2023-12-14T03:27:01;33.17;;;18.48;;
10761;SDS011;5433;50.862;4.320;2023-12-14T03:29:28;35.00;;;18.42;;
10761;SDS011;5433;50.862;4.320;2023-12-14T03:31:54;31.00;;;17.75;;
10761;SDS011;5433;50.862;4.320;2023-12-14T03:34:20;31.25;;;17.35;;
10761;SDS011;5433;50.862;4.320;2023-12-14T03:36:46;31.05;;;17.85;;
10761;SDS011;5433;50.862;4.320;2023-12-14T03:39:12;31.38;;;16.55;;
10761;SDS011;5433;50.862;4.320;2023-12-14T03:44:42;28.73;;;15.90;;
10761;SDS011;5433;50.862;4.320;2023-12-14T03:47:08;29.52;;;15.80;;
10761;SDS011;5433;50.862;4.320;2023-12-14T03:49:37;26.00;;;16.08;;
10761;SDS011;5433;50.862;4.320;2023-12-14T03:52:04;28.70;;;16.35;;
10761;SDS011;5433;50.862;4.320;2023-12-14T03:54:30;27.15;;;16.90;;
10761;SDS011;5433;50.862;4.320;2023-12-14T03:56:56;27.88;;;16.65;;
10761;SDS011;5433;50.862;4.320;2023-12-14T03:59:22;29.45;;;16.88;;
10761;SDS011;5433;50.862;4.320;2023-12-14T04:01:48;26.70;;;15.80;;
10761;SDS011;5433;50.862;4.320;2023-12-14T04:04:14;25.90;;;15.63;;
10761;SDS011;5433;50.862;4.320;2023-12-14T04:06:40;27.10;;;15.93;;
10761;SDS011;5433;50.862;4.320;2023-12-14T04:09:11;29.52;;;16.05;;
10761;SDS011;5433;50.862;4.320;2023-12-14T04:11:37;23.90;;;15.45;;
10761;SDS011;5433;50.862;4.320;2023-12-14T04:14:03;23.17;;;15.60;;
10761;SDS011;5433;50.862;4.320;2023-12-14T04:16:29;21.80;;;15.45;;
10761;SDS011;5433;50.862;4.320;2023-12-14T04:18:55;21.77;;;14.90;;
10761;SDS011;5433;50.862;4.320;2023-12-14T04:21:21;20.88;;;15.65;;
10761;SDS011;5433;50.862;4.320;2023-12-14T04:23:47;22.10;;;15.00;;
10761;SDS011;5433;50.862;4.320;2023-12-14T04:26:13;21.52;;;15.38;;
10761;SDS011;5433;50.862;4.320;2023-12-14T04:28:39;20.83;;;15.32;;
10761;SDS011;5433;50.862;4.320;2023-12-14T04:31:05;20.48;;;14.43;;
10761;SDS011;5433;50.862;4.320;2023-12-14T04:33:31;22.15;;;15.90;;
10761;SDS011;5433;50.862;4.320;2023-12-14T04:35:57;22.38;;;15.38;;
10761;SDS011;5433;50.862;4.320;2023-12-14T04:38:23;23.40;;;15.75;;
10761;SDS011;5433;50.862;4.320;2023-12-14T04:40:49;20.80;;;15.63;;
10761;SDS011;5433;50.862;4.320;2023-12-14T04:43:15;21.30;;;15.77;;
10761;SDS011;5433;50.862;4.320;2023-12-14T04:45:41;22.67;;;15.43;;
10761;SDS011;5433;50.862;4.320;2023-12-14T04:48:07;22.10;;;16.23;;
10761;SDS011;5433;50.862;4.320;2023-12-14T04:50:33;24.15;;;16.77;;
10761;SDS011;5433;50.862;4.320;2023-12-14T04:52:59;21.98;;;16.02;;
10761;SDS011;5433;50.862;4.320;2023-12-14T04:55:25;22.20;;;16.45;;
10761;SDS011;5433;50.862;4.320;2023-12-14T04:57:51;23.73;;;16.52;;
10761;SDS011;5433;50.862;4.320;2023-12-14T05:00:17;23.83;;;16.55;;
10761;SDS011;5433;50.862;4.320;2023-12-14T05:02:47;20.98;;;15.13;;
10761;SDS011;5433;50.862;4.320;2023-12-14T05:05:13;24.92;;;16.75;;
10761;SDS011;5433;50.862;4.320;2023-12-14T05:07:39;22.38;;;16.15;;
10761;SDS011;5433;50.862;4.320;2023-12-14T05:10:05;21.70;;;16.17;;
10761;SDS011;5433;50.862;4.320;2023-12-14T05:12:32;22.00;;;15.73;;
10761;SDS011;5433;50.862;4.320;2023-12-14T05:14:57;22.33;;;16.02;;
10761;SDS011;5433;50.862;4.320;2023-12-14T05:17:23;20.77;;;15.65;;
10761;SDS011;5433;50.862;4.320;2023-12-14T05:19:49;20.85;;;16.50;;
10761;SDS011;5433;50.862;4.320;2023-12-14T05:22:15;21.58;;;15.70;;
10761;SDS011;5433;50.862;4.320;2023-12-14T05:24:44;21.30;;;15.85;;
10761;SDS011;5433;50.862;4.320;2023-12-14T05:27:10;20.38;;;15.45;;
10761;SDS011;5433;50.862;4.320;2023-12-14T05:29:36;20.05;;;15.43;;
10761;SDS011;5433;50.862;4.320;2023-12-14T05:32:02;18.70;;;15.55;;
10761;SDS011;5433;50.862;4.320;2023-12-14T05:34:28;20.63;;;15.48;;
10761;SDS011;5433;50.862;4.320;2023-12-14T05:36:54;21.08;;;16.23;;
10761;SDS011;5433;50.862;4.320;2023-12-14T05:39:20;21.00;;;16.25;;
10761;SDS011;5433;50.862;4.320;2023-12-14T05:41:46;20.25;;;16.05;;
10761;SDS011;5433;50.862;4.320;2023-12-14T05:44:12;20.50;;;15.80;;
10761;SDS011;5433;50.862;4.320;2023-12-14T05:46:38;21.05;;;16.23;;
10761;SDS011;5433;50.862;4.320;2023-12-14T05:49:04;22.33;;;15.77;;
10761;SDS011;5433;50.862;4.320;2023-12-14T05:51:31;23.65;;;16.80;;
10761;SDS011;5433;50.862;4.320;2023-12-14T05:53:57;21.25;;;16.00;;
10761;SDS011;5433;50.862;4.320;2023-12-14T05:56:24;20.83;;;15.55;;
10761;SDS011;5433;50.862;4.320;2023-12-14T05:58:50;19.88;;;15.00;;
10761;SDS011;5433;50.862;4.320;2023-12-14T06:01:19;20.65;;;15.55;;
10761;SDS011;5433;50.862;4.320;2023-12-14T06:03:45;20.73;;;15.27;;
10761;SDS011;5433;50.862;4.320;2023-12-14T06:06:14;22.40;;;15.38;;
10761;SDS011;5433;50.862;4.320;2023-12-14T06:08:40;19.65;;;14.68;;
10761;SDS011;5433;50.862;4.320;2023-12-14T06:11:06;18.50;;;14.73;;
10761;SDS011;5433;50.862;4.320;2023-12-14T06:13:33;19.85;;;14.80;;
10761;SDS011;5433;50.862;4.320;2023-12-14T06:15:59;16.77;;;13.25;;
10761;SDS011;5433;50.862;4.320;2023-12-14T06:18:25;18.55;;;13.80;;
10761;SDS011;5433;50.862;4.320;2023-12-14T06:20:51;20.05;;;14.48;;
10761;SDS011;5433;50.862;4.320;2023-12-14T06:23:17;18.95;;;14.75;;
10761;SDS011;5433;50.862;4.320;2023-12-14T06:25:43;18.58;;;13.68;;
10761;SDS011;5433;50.862;4.320;2023-12-14T06:28:09;20.52;;;14.80;;
10761;SDS011;5433;50.862;4.320;2023-12-14T06:30:35;19.63;;;13.98;;
10761;SDS011;5433;50.862;4.320;2023-12-14T06:33:01;19.88;;;14.10;;
10761;SDS011;5433;50.862;4.320;2023-12-14T06:35:27;19.23;;;13.95;;
10761;SDS011;5433;50.862;4.320;2023-12-14T06:37:53;20.48;;;13.95;;
10761;SDS011;5433;50.862;4.320;2023-12-14T06:40:19;17.90;;;13.35;;
10761;SDS011;5433;50.862;4.320;2023-12-14T06:42:45;17.73;;;12.82;;
10761;SDS011;5433;50.862;4.320;2023-12-14T06:45:11;18.67;;;13.13;;
10761;SDS011;5433;50.862;4.320;2023-12-14T06:47:37;16.83;;;12.75;;
10761;SDS011;5433;50.862;4.320;2023-12-14T06:50:06;18.60;;;12.57;;
10761;SDS011;5433;50.862;4.320;2023-12-14T06:52:33;14.80;;;11.32;;
10761;SDS011;5433;50.862;4.320;2023-12-14T06:54:58;16.67;;;12.10;;
10761;SDS011;5433;50.862;4.320;2023-12-14T06:57:24;16.40;;;12.23;;
10761;SDS011;5433;50.862;4.320;2023-12-14T06:59:51;17.55;;;11.77;;
10761;SDS011;5433;50.862;4.320;2023-12-14T07:02:17;14.55;;;11.20;;
10761;SDS011;5433;50.862;4.320;2023-12-14T07:04:43;16.50;;;11.85;;
10761;SDS011;5433;50.862;4.320;2023-12-14T07:07:09;16.80;;;11.20;;
10761;SDS011;5433;50.862;4.320;2023-12-14T07:09:37;15.18;;;11.20;;
10761;SDS011;5433;50.862;4.320;2023-12-14T07:12:04;15.85;;;10.68;;
10761;SDS011;5433;50.862;4.320;2023-12-14T07:14:30;15.05;;;10.95;;
10761;SDS011;5433;50.862;4.320;2023-12-14T07:16:56;16.30;;;11.30;;
10761;SDS011;5433;50.862;4.320;2023-12-14T07:19:22;15.38;;;10.90;;
10761;SDS011;5433;50.862;4.320;2023-12-14T07:21:48;16.27;;;10.50;;
10761;SDS011;5433;50.862;4.320;2023-12-14T07:24:14;14.70;;;10.48;;
10761;SDS011;5433;50.862;4.320;2023-12-14T07:26:40;14.63;;;10.13;;
10761;SDS011;5433;50.862;4.320;2023-12-14T07:29:06;15.75;;;10.25;;
10761;SDS011;5433;50.862;4.320;2023-12-14T07:31:32;16.17;;;10.70;;
10761;SDS011;5433;50.862;4.320;2023-12-14T07:33:59;13.98;;;10.35;;
10761;SDS011;5433;50.862;4.320;2023-12-14T07:36:25;12.90;;;9.93;;
10761;SDS011;5433;50.862;4.320;2023-12-14T07:38:51;15.95;;;10.13;;
10761;SDS011;5433;50.862;4.320;2023-12-14T07:41:17;17.80;;;10.65;;
10761;SDS011;5433;50.862;4.320;2023-12-14T07:43:43;14.40;;;10.35;;
10761;SDS011;5433;50.862;4.320;2023-12-14T07:46:09;14.18;;;10.80;;
10761;SDS011;5433;50.862;4.320;2023-12-14T07:48:35;13.25;;;10.50;;
10761;SDS011;5433;50.862;4.320;2023-12-14T07:51:01;16.27;;;10.40;;
10761;SDS011;5433;50.862;4.320;2023-12-14T07:53:30;16.73;;;9.85;;
10761;SDS011;5433;50.862;4.320;2023-12-14T07:59:09;16.27;;;10.20;;
10761;SDS011;5433;50.862;4.320;2023-12-14T08:01:35;14.35;;;9.68;;
10761;SDS011;5433;50.862;4.320;2023-12-14T08:04:01;17.40;;;9.80;;
10761;SDS011;5433;50.862;4.320;2023-12-14T08:06:28;12.90;;;8.70;;
10761;SDS011;5433;50.862;4.320;2023-12-14T08:08:55;13.80;;;9.40;;
10761;SDS011;5433;50.862;4.320;2023-12-14T08:11:23;12.02;;;8.43;;
10761;SDS011;5433;50.862;4.320;2023-12-14T08:13:49;11.90;;;8.32;;
10761;SDS011;5433;50.862;4.320;2023-12-14T08:16:15;9.68;;;7.68;;
10761;SDS011;5433;50.862;4.320;2023-12-14T08:18:44;14.50;;;8.82;;
10761;SDS011;5433;50.862;4.320;2023-12-14T08:21:12;12.48;;;6.88;;
10761;SDS011;5433;50.862;4.320;2023-12-14T08:23:38;10.90;;;7.57;;
10761;SDS011;5433;50.862;4.320;2023-12-14T08:26:04;8.88;;;7.30;;
10761;SDS011;5433;50.862;4.320;2023-12-14T08:28:30;10.75;;;7.72;;
10761;SDS011;5433;50.862;4.320;2023-12-14T08:37:03;14.10;;;9.35;;
10761;SDS011;5433;50.862;4.320;2023-12-14T08:39:29;9.25;;;7.82;;
10761;SDS011;5433;50.862;4.320;2023-12-14T08:41:55;11.90;;;8.10;;
10761;SDS011;5433;50.862;4.320;2023-12-14T08:44:21;10.55;;;7.45;;
10761;SDS011;5433;50.862;4.320;2023-12-14T08:46:47;12.07;;;8.07;;
10761;SDS011;5433;50.862;4.320;2023-12-14T08:49:13;13.13;;;7.93;;
10761;SDS011;5433;50.862;4.320;2023-12-14T08:51:40;12.10;;;8.50;;
10761;SDS011;5433;50.862;4.320;2023-12-14T08:54:06;12.80;;;8.43;;
10761;SDS011;5433;50.862;4.320;2023-12-14T08:56:32;11.27;;;8.60;;
10761;SDS011;5433;50.862;4.320;2023-12-14T08:58:59;12.80;;;8.63;;
10761;SDS011;5433;50.862;4.320;2023-12-14T09:01:28;13.52;;;8.23;;
10761;SDS011;5433;50.862;4.320;2023-12-14T09:03:54;13.75;;;8.60;;
10761;SDS011;5433;50.862;4.320;2023-12-14T09:06:20;17.63;;;8.98;;
10761;SDS011;5433;50.862;4.320;2023-12-14T09:08:46;11.13;;;8.50;;
10761;SDS011;5433;50.862;4.320;2023-12-14T09:11:12;18.42;;;8.60;;
10761;SDS011;5433;50.862;4.320;2023-12-14T09:13:40;11.60;;;8.18;;
10761;SDS011;5433;50.862;4.320;2023-12-14T09:16:07;10.65;;;7.78;;
10761;SDS011;5433;50.862;4.320;2023-12-14T09:18:33;13.32;;;7.60;;
10761;SDS011;5433;50.862;4.320;2023-12-14T09:20:59;13.90;;;8.30;;
10761;SDS011;5433;50.862;4.320;2023-12-14T09:23:25;11.98;;;6.63;;
10761;SDS011;5433;50.862;4.320;2023-12-14T09:25:51;11.02;;;7.15;;
10761;SDS011;5433;50.862;4.320;2023-12-14T09:28:17;13.48;;;8.10;;
10761;SDS011;5433;50.862;4.320;2023-12-14T09:30:43;13.50;;;6.93;;
10761;SDS011;5433;50.862;4.320;2023-12-14T09:33:09;11.40;;;6.80;;
10761;SDS011;5433;50.862;4.320;2023-12-14T09:35:35;9.63;;;6.22;;
10761;SDS011;5433;50.862;4.320;2023-12-14T09:38:02;8.27;;;6.50;;
10761;SDS011;5433;50.862;4.320;2023-12-14T09:40:28;9.90;;;6.03;;
10761;SDS011;5433;50.862;4.320;2023-12-14T09:42:54;9.20;;;6.07;;
10761;SDS011;5433;50.862;4.320;2023-12-14T09:45:23;10.90;;;6.05;;
10761;SDS011;5433;50.862;4.320;2023-12-14T09:47:49;8.10;;;5.60;;
10761;SDS011;5433;50.862;4.320;2023-12-14T09:50:15;9.07;;;5.45;;
10761;SDS011;5433;50.862;4.320;2023-12-14T09:52:41;8.23;;;5.57;;
10761;SDS011;5433;50.862;4.320;2023-12-14T09:55:12;7.88;;;5.15;;
10761;SDS011;5433;50.862;4.320;2023-12-14T09:57:39;10.82;;;5.60;;
10761;SDS011;5433;50.862;4.320;2023-12-14T10:00:05;6.80;;;5.55;;
10761;SDS011;5433;50.862;4.320;2023-12-14T10:02:35;9.23;;;5.35;;
10761;SDS011;5433;50.862;4.320;2023-12-14T10:05:01;8.18;;;4.97;;
10761;SDS011;5433;50.862;4.320;2023-12-14T10:07:27;8.02;;;4.80;;
10761;SDS011;5433;50.862;4.320;2023-12-14T10:09:53;8.32;;;5.05;;
10761;SDS011;5433;50.862;4.320;2023-12-14T10:12:20;7.65;;;5.32;;
10761;SDS011;5433;50.862;4.320;2023-12-14T10:14:48;8.80;;;5.25;;
10761;SDS011;5433;50.862;4.320;2023-12-14T10:17:18;11.60;;;5.90;;
10761;SDS011;5433;50.862;4.320;2023-12-14T10:19:45;11.43;;;5.53;;
10761;SDS011;5433;50.862;4.320;2023-12-14T10:22:15;9.18;;;5.28;;
10761;SDS011;5433;50.862;4.320;2023-12-14T10:24:42;11.13;;;5.35;;
10761;SDS011;5433;50.862;4.320;2023-12-14T10:27:09;7.97;;;5.70;;
10761;SDS011;5433;50.862;4.320;2023-12-14T10:29:39;8.20;;;5.35;;
10761;SDS011;5433;50.862;4.320;2023-12-14T10:32:06;9.45;;;5.13;;
10761;SDS011;5433;50.862;4.320;2023-12-14T10:34:34;7.95;;;4.93;;
10761;SDS011;5433;50.862;4.320;2023-12-14T10:37:00;8.18;;;5.10;;
10761;SDS011;5433;50.862;4.320;2023-12-14T10:39:28;9.73;;;5.45;;
10761;SDS011;5433;50.862;4.320;2023-12-14T10:41:55;13.65;;;5.40;;
10761;SDS011;5433;50.862;4.320;2023-12-14T10:44:26;10.25;;;5.20;;
10761;SDS011;5433;50.862;4.320;2023-12-14T10:46:54;9.68;;;5.25;;
10761;SDS011;5433;50.862;4.320;2023-12-14T10:49:22;11.90;;;5.10;;
10761;SDS011;5433;50.862;4.320;2023-12-14T10:51:49;9.30;;;5.13;;
10761;SDS011;5433;50.862;4.320;2023-12-14T10:54:15;10.02;;;6.05;;
10761;SDS011;5433;50.862;4.320;2023-12-14T10:56:42;8.63;;;5.55;;
10761;SDS011;5433;50.862;4.320;2023-12-14T10:59:08;9.25;;;5.40;;
10761;SDS011;5433;50.862;4.320;2023-12-14T11:01:34;8.40;;;4.72;;
10761;SDS011;5433;50.862;4.320;2023-12-14T11:04:05;6.70;;;4.60;;
10761;SDS011;5433;50.862;4.320;2023-12-14T11:06:32;8.60;;;4.50;;
10761;SDS011;5433;50.862;4.320;2023-12-14T11:09:04;7.75;;;4.70;;
10761;SDS011;5433;50.862;4.320;2023-12-14T11:11:41;9.18;;;5.00;;
10761;SDS011;5433;50.862;4.320;2023-12-14T11:14:10;8.23;;;5.45;;
10761;SDS011;5433;50.862;4.320;2023-12-14T11:16:37;10.45;;;5.35;;
10761;SDS011;5433;50.862;4.320;2023-12-14T11:24:22;9.20;;;5.45;;
10761;SDS011;5433;50.862;4.320;2023-12-14T11:26:48;9.43;;;5.13;;
10761;SDS011;5433;50.862;4.320;2023-12-14T11:29:15;8.70;;;5.60;;
10761;SDS011;5433;50.862;4.320;2023-12-14T11:31:41;9.25;;;5.95;;
10761;SDS011;5433;50.862;4.320;2023-12-14T11:34:07;11.30;;;6.57;;
10761;SDS011;5433;50.862;4.320;2023-12-14T11:36:33;12.82;;;6.40;;
10761;SDS011;5433;50.862;4.320;2023-12-14T11:39:00;8.77;;;5.68;;
10761;SDS011;5433;50.862;4.320;2023-12-14T11:41:26;9.57;;;6.18;;
10761;SDS011;5433;50.862;4.320;2023-12-14T11:43:54;10.32;;;6.80;;
10761;SDS011;5433;50.862;4.320;2023-12-14T11:46:20;12.57;;;6.25;;
10761;SDS011;5433;50.862;4.320;2023-12-14T11:48:46;10.13;;;6.30;;
10761;SDS011;5433;50.862;4.320;2023-12-14T11:51:14;9.43;;;5.93;;
10761;SDS011;5433;50.862;4.320;2023-12-14T11:53:43;10.95;;;5.97;;
10761;SDS011;5433;50.862;4.320;2023-12-14T11:56:09;7.80;;;5.63;;
10761;SDS011;5433;50.862;4.320;2023-12-14T11:58:35;10.52;;;6.38;;
10761;SDS011;5433;50.862;4.320;2023-12-14T12:01:17;10.88;;;6.15;;
10761;SDS011;5433;50.862;4.320;2023-12-14T12:03:44;10.60;;;6.78;;
10761;SDS011;5433;50.862;4.320;2023-12-14T12:06:20;14.25;;;6.82;;
10761;SDS011;5433;50.862;4.320;2023-12-14T12:08:47;11.80;;;6.60;;
10761;SDS011;5433;50.862;4.320;2023-12-14T12:11:20;10.70;;;6.78;;
10761;SDS011;5433;50.862;4.320;2023-12-14T12:13:50;11.02;;;6.82;;
10761;SDS011;5433;50.862;4.320;2023-12-14T12:16:17;10.77;;;6.07;;
10761;SDS011;5433;50.862;4.320;2023-12-14T12:18:44;13.13;;;6.93;;
10761;SDS011;5433;50.862;4.320;2023-12-14T12:21:11;11.32;;;6.45;;
10761;SDS011;5433;50.862;4.320;2023-12-14T12:23:37;13.07;;;6.40;;
10761;SDS011;5433;50.862;4.320;2023-12-14T12:29:07;10.32;;;6.03;;
10761;SDS011;5433;50.862;4.320;2023-12-14T12:31:33;9.13;;;5.55;;
10761;SDS011;5433;50.862;4.320;2023-12-14T12:33:59;12.32;;;6.15;;
10761;SDS011;5433;50.862;4.320;2023-12-14T12:36:25;10.98;;;5.18;;
10761;SDS011;5433;50.862;4.320;2023-12-14T12:38:51;9.27;;;6.07;;
10761;SDS011;5433;50.862;4.320;2023-12-14T12:41:19;10.43;;;6.05;;
10761;SDS011;5433;50.862;4.320;2023-12-14T12:43:45;8.98;;;4.88;;
10761;SDS011;5433;50.862;4.320;2023-12-14T12:46:11;7.53;;;5.05;;
10761;SDS011;5433;50.862;4.320;2023-12-14T12:48:40;9.73;;;5.00;;
10761;SDS011;5433;50.862;4.320;2023-12-14T12:54:15;6.50;;;4.88;;
10761;SDS011;5433;50.862;4.320;2023-12-14T12:56:45;8.02;;;4.95;;
10761;SDS011;5433;50.862;4.320;2023-12-14T12:59:11;7.53;;;5.03;;
10761;SDS011;5433;50.862;4.320;2023-12-14T13:01:42;8.98;;;5.03;;
10761;SDS011;5433;50.862;4.320;2023-12-14T13:04:19;8.35;;;5.18;;
10761;SDS011;5433;50.862;4.320;2023-12-14T13:06:45;10.40;;;5.85;;
10761;SDS011;5433;50.862;4.320;2023-12-14T13:09:12;8.75;;;4.88;;
10761;SDS011;5433;50.862;4.320;2023-12-14T13:11:39;10.52;;;5.65;;
10761;SDS011;5433;50.862;4.320;2023-12-14T13:14:05;10.18;;;5.50;;
10761;SDS011;5433;50.862;4.320;2023-12-14T13:16:38;8.98;;;5.30;;
10761;SDS011;5433;50.862;4.320;2023-12-14T13:19:08;10.55;;;5.50;;
10761;SDS011;5433;50.862;4.320;2023-12-14T13:21:34;11.73;;;5.35;;
10761;SDS011;5433;50.862;4.320;2023-12-14T13:24:01;10.18;;;5.90;;
10761;SDS011;5433;50.862;4.320;2023-12-14T13:26:27;8.05;;;5.28;;
10761;SDS011;5433;50.862;4.320;2023-12-14T13:28:53;8.23;;;5.30;;
10761;SDS011;5433;50.862;4.320;2023-12-14T13:31:19;14.55;;;5.57;;
10761;SDS011;5433;50.862;4.320;2023-12-14T13:33:47;10.15;;;5.78;;
10761;SDS011;5433;50.862;4.320;2023-12-14T13:36:18;8.32;;;5.72;;
10761;SDS011;5433;50.862;4.320;2023-12-14T13:38:44;11.18;;;6.57;;
10761;SDS011;5433;50.862;4.320;2023-12-14T13:44:36;10.30;;;6.18;;
10761;SDS011;5433;50.862;4.320;2023-12-14T13:50:08;9.20;;;5.88;;
10761;SDS011;5433;50.862;4.320;2023-12-14T13:52:42;7.93;;;5.88;;
10761;SDS011;5433;50.862;4.320;2023-12-14T13:55:13;10.18;;;5.90;;
10761;SDS011;5433;50.862;4.320;2023-12-14T13:57:41;11.63;;;5.88;;
10761;SDS011;5433;50.862;4.320;2023-12-14T14:03:11;11.15;;;6.25;;
10761;SDS011;5433;50.862;4.320;2023-12-14T14:05:37;9.00;;;6.30;;
10761;SDS011;5433;50.862;4.320;2023-12-14T14:08:03;9.23;;;5.68;;
10761;SDS011;5433;50.862;4.320;2023-12-14T14:10:30;8.98;;;6.20;;
10761;SDS011;5433;50.862;4.320;2023-12-14T14:12:59;10.40;;;6.53;;
10761;SDS011;5433;50.862;4.320;2023-12-14T14:15:25;11.35;;;5.78;;
10761;SDS011;5433;50.862;4.320;2023-12-14T14:17:51;8.57;;;5.93;;
10761;SDS011;5433;50.862;4.320;2023-12-14T14:20:19;9.52;;;5.38;;
10761;SDS011;5433;50.862;4.320;2023-12-14T14:22:48;11.57;;;5.97;;
10761;SDS011;5433;50.862;4.320;2023-12-14T14:25:14;10.13;;;5.80;;
10761;SDS011;5433;50.862;4.320;2023-12-14T14:27:40;11.25;;;5.00;;
10761;SDS011;5433;50.862;4.320;2023-12-14T14:30:06;8.98;;;5.60;;
10761;SDS011;5433;50.862;4.320;2023-12-14T14:32:32;9.15;;;5.28;;
10761;SDS011;5433;50.862;4.320;2023-12-14T14:35:04;9.82;;;5.63;;
10761;SDS011;5433;50.862;4.320;2023-12-14T14:37:31;8.13;;;5.70;;
10761;SDS011;5433;50.862;4.320;2023-12-14T14:39:57;8.02;;;5.13;;
10761;SDS011;5433;50.862;4.320;2023-12-14T14:42:23;10.80;;;5.40;;
10761;SDS011;5433;50.862;4.320;2023-12-14T14:44:50;7.65;;;4.90;;
10761;SDS011;5433;50.862;4.320;2023-12-14T14:47:16;11.82;;;5.45;;
10761;SDS011;5433;50.862;4.320;2023-12-14T14:49:43;9.20;;;5.38;;
10761;SDS011;5433;50.862;4.320;2023-12-14T14:52:09;7.60;;;5.10;;
10761;SDS011;5433;50.862;4.320;2023-12-14T14:54:35;8.13;;;5.10;;
10761;SDS011;5433;50.862;4.320;2023-12-14T14:57:05;7.05;;;4.90;;
10761;SDS011;5433;50.862;4.320;2023-12-14T14:59:31;6.30;;;4.90;;
10761;SDS011;5433;50.862;4.320;2023-12-14T15:05:11;8.30;;;3.83;;
10761;SDS011;5433;50.862;4.320;2023-12-14T15:15:44;5.80;;;3.63;;
10761;SDS011;5433;50.862;4.320;2023-12-14T15:20:58;7.15;;;3.78;;
10761;SDS011;5433;50.862;4.320;2023-12-14T15:23:24;7.38;;;3.50;;
10761;SDS011;5433;50.862;4.320;2023-12-14T15:25:53;6.60;;;3.40;;
10761;SDS011;5433;50.862;4.320;2023-12-14T15:28:19;10.88;;;3.22;;
10761;SDS011;5433;50.862;4.320;2023-12-14T15:30:45;7.60;;;3.03;;